Time;durP1;ratioP1;P1;durP2;ratioP2;P2;SDS_P1;SDS_P2;PMS_P1;PMS_P2;Temp;Humidity;BMP_temperature;BMP_pressure;BME280_temperature;BME280_humidity;BME280_pressure;Samples;Min_cycle;Max_cycle;Signal;HPM_P1;HPM_P2
2023/06/07 00:02:15;;;;;;;;;16.33;15.67;;;;;21.07;54.67;101184.38;4980338;28;45433;-71
2023/06/07 00:04:41;;;;;;;;;18.00;16.00;;;;;21.16;54.54;101203.94;4979507;28;45977;-71
2023/06/07 00:07:06;;;;;;;;;14.33;12.33;;;;;21.00;54.72;101194.28;4979647;28;45359;-71
2023/06/07 00:09:32;;;;;;;;;19.67;17.00;;;;;21.04;55.14;101205.56;4979779;28;45289;-71
2023/06/07 00:11:58;;;;;;;;;16.00;14.67;;;;;20.94;55.14;101205.94;4979999;28;45352;-71
2023/06/07 00:14:23;;;;;;;;;18.00;17.00;;;;;20.86;55.27;101209.63;4979558;28;46235;-71
2023/06/07 00:16:52;;;;;;;;;23.00;15.00;;;;;20.75;55.77;101196.69;4978319;28;45457;-72
2023/06/07 00:19:21;;;;;;;;;21.00;15.33;;;;;20.75;55.45;101202.09;4979437;28;45341;-71
2023/06/07 00:21:48;;;;;;;;;18.33;16.33;;;;;20.63;55.75;101187.50;4979718;28;45345;-70
2023/06/07 00:24:17;;;;;;;;;16.33;16.33;;;;;20.66;55.39;101206.00;4979052;28;45733;-71
2023/06/07 00:26:43;;;;;;;;;15.00;12.67;;;;;20.60;55.94;101214.88;4979444;28;45294;-70
2023/06/07 00:29:09;;;;;;;;;12.33;12.33;;;;;20.55;56.00;101207.38;4979366;28;45316;-71
2023/06/07 00:31:35;;;;;;;;;17.00;15.33;;;;;20.50;55.96;101196.34;4979775;28;45331;-71
2023/06/07 00:34:00;;;;;;;;;17.33;15.67;;;;;20.53;56.35;101211.31;4977660;28;47501;-72
2023/06/07 00:36:28;;;;;;;;;15.33;14.00;;;;;20.44;56.24;101215.19;4979240;28;45480;-70
2023/06/07 00:38:53;;;;;;;;;18.00;16.00;;;;;20.03;56.17;101148.41;4979471;28;45487;-70
2023/06/07 00:41:20;;;;;;;;;15.67;14.67;;;;;20.32;56.39;101202.19;4978302;28;45261;-71
2023/06/07 00:43:47;;;;;;;;;17.67;16.00;;;;;20.26;56.85;101211.09;4979041;28;45688;-71
2023/06/07 00:46:14;;;;;;;;;20.00;17.00;;;;;20.16;57.34;101212.44;4979008;28;45319;-71
2023/06/07 00:48:40;;;;;;;;;20.67;15.33;;;;;20.10;57.30;101211.38;4979147;28;45374;-71
2023/06/07 00:51:05;;;;;;;;;21.33;16.33;;;;;20.09;57.44;101209.72;4979255;28;45315;-71
2023/06/07 00:53:31;;;;;;;;;17.00;14.67;;;;;20.00;57.12;101202.75;4978978;28;46037;-71
2023/06/07 00:55:58;;;;;;;;;18.67;14.67;;;;;20.00;57.03;101192.78;4979330;28;45432;-71
2023/06/07 00:58:25;;;;;;;;;17.67;15.00;;;;;19.73;57.10;101143.16;4979344;28;45494;-72
2023/06/07 01:00:51;;;;;;;;;13.33;13.33;;;;;20.17;56.88;101203.31;4961862;28;45312;-72
2023/06/07 01:03:17;;;;;;;;;16.67;16.33;;;;;20.12;56.50;101189.59;4979027;28;45485;-70
2023/06/07 01:05:44;;;;;;;;;9.00;9.00;;;;;19.98;56.63;101167.03;4979140;28;45252;-72
2023/06/07 01:08:09;;;;;;;;;17.67;15.33;;;;;20.11;56.59;101204.94;4978984;28;45399;-71
2023/06/07 01:10:36;;;;;;;;;20.00;17.00;;;;;20.11;56.79;101196.00;4979093;28;45490;-72
2023/06/07 01:13:03;;;;;;;;;16.00;14.67;;;;;20.09;56.80;101204.31;4978699;28;45698;-71
2023/06/07 01:15:29;;;;;;;;;22.67;14.67;;;;;19.95;56.91;101180.94;4978790;28;45300;-71
2023/06/07 01:17:57;;;;;;;;;14.67;13.00;;;;;19.93;57.15;101191.09;4978624;28;45488;-70
2023/06/07 01:20:25;;;;;;;;;16.33;13.67;;;;;19.92;56.94;101194.81;4978673;28;45328;-70
2023/06/07 01:22:53;;;;;;;;;21.00;16.00;;;;;19.92;56.82;101200.22;4960965;28;47603;-70
2023/06/07 01:25:19;;;;;;;;;17.67;14.67;;;;;19.74;57.16;101173.69;4978485;28;45278;-69
2023/06/07 01:27:46;;;;;;;;;21.67;16.67;;;;;19.84;57.19;101195.78;4978525;28;45640;-70
2023/06/07 01:30:12;;;;;;;;;17.67;15.67;;;;;19.84;57.09;101203.06;4978693;28;45228;-71
2023/06/07 01:32:41;;;;;;;;;13.00;12.33;;;;;19.82;56.98;101200.53;4976955;28;47872;-69
2023/06/07 01:35:09;;;;;;;;;21.33;16.00;;;;;19.79;57.05;101186.59;4977095;28;45635;-69
2023/06/07 01:37:35;;;;;;;;;16.00;16.00;;;;;19.71;56.89;101185.69;4978591;28;45302;-71
2023/06/07 01:40:04;;;;;;;;;19.00;16.67;;;;;19.73;57.52;101194.44;4978633;28;45328;-69
2023/06/07 01:42:30;;;;;;;;;21.00;15.33;;;;;19.73;57.26;101185.50;4960495;28;46704;-70
2023/06/07 01:44:56;;;;;;;;;18.00;17.67;;;;;19.63;57.43;101185.00;4978223;28;45342;-72
2023/06/07 01:47:22;;;;;;;;;16.00;14.67;;;;;19.65;57.13;101178.38;4978402;28;45440;-71
2023/06/07 01:49:47;;;;;;;;;18.00;16.33;;;;;19.65;57.45;101183.78;4978305;28;45571;-70
2023/06/07 01:52:12;;;;;;;;;19.00;17.33;;;;;19.60;57.44;101180.81;4977924;28;49653;-71
2023/06/07 01:54:39;;;;;;;;;21.67;20.00;;;;;19.49;57.81;101177.78;4978202;28;45528;-71
2023/06/07 01:57:27;;;;;;;;;23.67;21.33;;;;;19.42;57.79;101183.94;4960703;28;45315;-69
2023/06/07 01:59:58;;;;;;;;;24.00;18.67;;;;;19.42;58.21;101178.53;4947444;28;45314;-71
2023/06/07 02:02:33;;;;;;;;;19.00;14.33;;;;;19.38;57.68;101182.63;4977709;28;46590;-73
2023/06/07 02:05:05;;;;;;;;;14.67;14.67;;;;;19.21;58.17;101153.38;4977555;28;45225;-72
2023/06/07 02:07:45;;;;;;;;;25.33;19.67;;;;;19.32;58.06;101175.31;4978096;28;45310;-71
2023/06/07 02:10:13;;;;;;;;;22.00;19.33;;;;;19.27;57.92;101168.81;4978058;28;45837;-71
2023/06/07 02:12:40;;;;;;;;;13.00;11.00;;;;;19.26;57.95;101161.75;4977804;28;46768;-70
2023/06/07 02:15:06;;;;;;;;;21.00;18.67;;;;;18.87;57.54;101103.69;4977661;28;45563;-72
2023/06/07 02:17:32;;;;;;;;;22.33;19.00;;;;;19.01;57.92;101131.59;4978174;28;45425;-72
2023/06/07 02:19:57;;;;;;;;;18.67;15.00;;;;;19.29;58.04;101177.56;4977585;28;45250;-70
2023/06/07 02:22:23;;;;;;;;;15.67;13.67;;;;;19.22;58.33;101177.50;4977771;28;45587;-71
2023/06/07 02:24:50;;;;;;;;;25.33;22.00;;;;;19.19;58.28;101180.53;4977317;28;50638;-70
2023/06/07 02:27:15;;;;;;;;;20.33;19.00;;;;;19.15;58.13;101176.56;4977728;28;45373;-70
2023/06/07 02:29:40;;;;;;;;;20.67;19.33;;;;;18.74;58.22;101108.91;4977889;28;45346;-69
2023/06/07 02:32:07;;;;;;;;;19.33;19.33;;;;;19.09;58.49;101171.94;4976051;28;45547;-72
2023/06/07 02:34:32;;;;;;;;;18.00;18.00;;;;;18.89;58.50;101147.44;4977303;28;45528;-70
2023/06/07 02:36:57;;;;;;;;;23.00;19.33;;;;;19.03;58.39;101172.69;4977493;28;45287;-69
2023/06/07 02:39:23;;;;;;;;;18.33;17.67;;;;;18.99;58.51;101164.13;4978021;28;45251;-70
2023/06/07 02:41:48;;;;;;;;;14.00;14.00;;;;;18.88;58.88;101167.31;4977465;28;46566;-70
2023/06/07 02:44:13;;;;;;;;;17.00;11.33;;;;;18.79;58.86;101165.75;4977209;28;52316;-70
2023/06/07 02:46:39;;;;;;;;;24.33;19.33;;;;;18.73;59.29;101163.81;4977375;28;45427;-71
2023/06/07 02:49:05;;;;;;;;;17.33;15.67;;;;;18.77;59.21;101159.72;4977474;28;45432;-71
2023/06/07 02:51:30;;;;;;;;;14.33;13.33;;;;;18.79;59.41;101171.13;4959812;28;46997;-70
2023/06/07 02:53:56;;;;;;;;;20.00;19.00;;;;;18.72;59.33;101171.06;4977220;28;45281;-70
2023/06/07 02:56:23;;;;;;;;;22.67;20.33;;;;;18.66;59.48;101160.19;4959700;28;45235;-71
2023/06/07 02:58:48;;;;;;;;;27.67;25.00;;;;;18.59;59.21;101165.44;4977546;28;45564;-71
2023/06/07 03:01:14;;;;;;;;;23.67;20.67;;;;;18.61;59.54;101163.41;4976994;28;47833;-71
2023/06/07 03:03:39;;;;;;;;;24.33;21.33;;;;;18.46;59.66;101155.34;4977255;28;45312;-70
2023/06/07 03:06:07;;;;;;;;;25.33;20.00;;;;;18.51;60.02;101173.63;4976649;28;50204;-70
2023/06/07 03:08:33;;;;;;;;;17.67;15.33;;;;;18.44;60.08;101167.31;4977410;28;45363;-71
2023/06/07 03:10:59;;;;;;;;;25.67;19.67;;;;;18.40;60.16;101169.53;4976890;28;46032;-71
2023/06/07 03:13:24;;;;;;;;;23.00;21.67;;;;;18.45;59.92;101161.75;4959331;28;45366;-72
2023/06/07 03:15:50;;;;;;;;;22.33;21.00;;;;;18.07;59.80;101096.38;4959465;28;45400;-71
2023/06/07 03:18:17;;;;;;;;;20.00;19.33;;;;;18.50;59.40;101159.31;4975814;28;45560;-71
2023/06/07 03:20:43;;;;;;;;;19.33;18.33;;;;;18.55;59.57;101172.22;4976850;28;46412;-71
2023/06/07 03:23:09;;;;;;;;;22.67;20.00;;;;;18.35;60.66;101155.78;4976888;28;45314;-71
2023/06/07 03:25:35;;;;;;;;;17.33;16.33;;;;;18.38;59.79;101165.34;4976982;28;45510;-70
2023/06/07 03:28:00;;;;;;;;;25.67;20.67;;;;;18.35;60.00;101153.09;4959509;28;45362;-72
2023/06/07 03:30:26;;;;;;;;;25.00;22.00;;;;;17.94;59.61;101094.31;4976982;28;46276;-71
2023/06/07 03:32:52;;;;;;;;;19.00;17.33;;;;;18.28;59.80;101149.47;4975461;28;45522;-72
2023/06/07 03:35:17;;;;;;;;;23.67;21.00;;;;;18.36;59.99;101165.53;4975408;28;45215;-71
2023/06/07 03:37:43;;;;;;;;;18.67;17.67;;;;;18.33;60.07;101168.59;4977185;28;45511;-70
2023/06/07 03:40:09;;;;;;;;;22.33;21.33;;;;;18.22;60.10;101153.75;4976517;28;45296;-72
2023/06/07 03:42:35;;;;;;;;;22.33;18.00;;;;;18.29;60.33;101163.78;4976624;28;45401;-71
2023/06/07 03:45:00;;;;;;;;;24.67;20.67;;;;;18.27;59.85;101153.19;4976740;28;45318;-70
2023/06/07 03:47:25;;;;;;;;;20.67;16.33;;;;;18.29;60.04;101167.28;4976902;28;45304;-70
2023/06/07 03:49:51;;;;;;;;;26.00;20.67;;;;;18.24;60.18;101169.72;4976126;28;45513;-71
2023/06/07 03:52:16;;;;;;;;;21.33;19.00;;;;;18.18;60.04;101154.28;4976739;28;45335;-71
2023/06/07 03:54:41;;;;;;;;;21.67;18.00;;;;;18.29;59.94;101170.00;4976764;28;45518;-71
2023/06/07 03:57:07;;;;;;;;;25.33;19.00;;;;;18.15;59.70;101144.72;4976588;28;45390;-71
2023/06/07 03:59:32;;;;;;;;;27.33;22.67;;;;;18.28;60.06;101165.63;4979380;28;46243;-71
2023/06/07 04:02:00;;;;;;;;;21.00;18.00;;;;;18.00;60.14;101126.88;4979778;28;45250;-70
2023/06/07 04:04:27;;;;;;;;;27.00;20.67;;;;;18.11;60.17;101161.44;4979693;28;45292;-71
2023/06/07 04:06:53;;;;;;;;;24.00;22.50;;;;;18.12;60.50;101163.09;4980092;28;45683;-70
2023/06/07 04:09:19;;;;;;;;;31.67;21.67;;;;;18.15;60.43;101168.09;4979501;28;45609;-70
2023/06/07 04:11:45;;;;;;;;;29.00;19.33;;;;;17.75;60.22;101102.06;4979730;28;45311;-69
2023/06/07 04:14:10;;;;;;;;;29.00;23.67;;;;;18.04;60.41;101160.50;4961959;28;45347;-72
2023/06/07 04:16:35;;;;;;;;;23.00;19.67;;;;;18.13;60.54;101175.53;4979191;28;45337;-71
2023/06/07 04:19:01;;;;;;;;;18.33;16.00;;;;;17.83;60.45;101126.22;4979378;28;46640;-71
2023/06/07 04:21:26;;;;;;;;;25.00;22.67;;;;;18.10;60.21;101175.91;4979209;28;45438;-71
2023/06/07 04:23:51;;;;;;;;;29.67;25.33;;;;;18.09;60.65;101176.91;4979425;28;45407;-72
2023/06/07 04:26:19;;;;;;;;;28.67;23.00;;;;;18.09;60.89;101179.59;4979522;28;45582;-71
2023/06/07 04:28:45;;;;;;;;;19.67;19.67;;;;;17.97;60.55;101164.91;4961769;28;47800;-71
2023/06/07 04:31:12;;;;;;;;;25.67;24.33;;;;;18.09;60.50;101179.59;4979366;28;45291;-71
2023/06/07 04:33:39;;;;;;;;;27.67;24.00;;;;;18.01;61.04;101187.75;4979229;28;45513;-71
2023/06/07 04:36:04;;;;;;;;;31.33;22.33;;;;;18.02;60.88;101184.03;4978950;28;45421;-70
2023/06/07 04:38:30;;;;;;;;;25.67;22.33;;;;;17.82;61.48;101162.19;4979129;28;46797;-71
2023/06/07 04:40:55;;;;;;;;;27.67;26.33;;;;;17.91;61.59;101182.63;4979016;28;45429;-71
2023/06/07 04:43:23;;;;;;;;;30.67;25.33;;;;;17.93;60.95;101181.41;4979470;28;45289;-71
2023/06/07 04:45:55;;;;;;;;;21.33;20.00;;;;;17.91;61.20;101191.53;4979221;28;45328;-71
2023/06/07 04:48:24;;;;;;;;;20.67;20.67;;;;;17.89;61.29;101192.72;4978680;28;46347;-71
2023/06/07 04:50:50;;;;;;;;;22.67;20.33;;;;;17.83;61.40;101186.22;4978550;28;45341;-71
2023/06/07 04:53:19;;;;;;;;;24.00;22.00;;;;;17.85;61.44;101200.34;4978998;28;45223;-72
2023/06/07 04:55:47;;;;;;;;;32.33;28.33;;;;;17.87;61.59;101200.97;4961193;28;45379;-73
2023/06/07 04:58:15;;;;;;;;;29.33;23.00;;;;;17.79;61.59;101194.81;4978636;28;46919;-71
2023/06/07 05:00:41;;;;;;;;;26.00;23.33;;;;;17.83;61.77;101196.97;4978575;28;45294;-72
2023/06/07 05:03:08;;;;;;;;;30.67;26.67;;;;;17.78;61.61;101185.91;4978447;28;45279;-71
2023/06/07 05:05:34;;;;;;;;;28.33;25.67;;;;;17.80;61.45;101185.72;4978830;28;45421;-71
2023/06/07 05:08:00;;;;;;;;;30.50;26.50;;;;;17.67;61.17;101154.06;4978708;28;45870;-71
2023/06/07 05:10:26;;;;;;;;;28.00;25.67;;;;;17.78;61.44;101185.91;4977277;28;45340;-71
2023/06/07 05:12:51;;;;;;;;;26.33;25.33;;;;;17.79;61.94;101211.78;4978378;28;45516;-70
2023/06/07 05:15:16;;;;;;;;;29.00;25.33;;;;;17.45;61.51;101131.53;4978532;28;45671;-72
2023/06/07 05:17:44;;;;;;;;;28.67;27.67;;;;;17.78;61.70;101187.75;4960573;28;46409;-71
2023/06/07 05:20:13;;;;;;;;;31.67;27.33;;;;;17.90;61.43;101195.25;4960709;28;46267;-72
2023/06/07 05:22:39;;;;;;;;;33.00;29.00;;;;;17.80;61.75;101181.19;4975666;28;45352;-73
2023/06/07 05:25:06;;;;;;;;;35.33;30.67;;;;;17.61;61.22;101165.50;4977359;28;45539;-71
2023/06/07 05:27:32;;;;;;;;;25.67;25.67;;;;;17.84;61.71;101190.59;4974913;28;47554;-71
2023/06/07 05:29:57;;;;;;;;;31.33;25.33;;;;;17.74;61.61;101187.28;4978101;28;45465;-72
2023/06/07 05:32:22;;;;;;;;;29.67;27.00;;;;;17.79;61.54;101173.28;4978201;28;45584;-71
2023/06/07 05:34:49;;;;;;;;;35.67;28.67;;;;;17.92;61.32;101174.38;4978154;28;45475;-70
2023/06/07 05:37:14;;;;;;;;;32.33;31.00;;;;;17.99;61.22;101187.09;4978406;28;45325;-70
2023/06/07 05:39:41;;;;;;;;;27.00;24.00;;;;;17.99;61.22;101189.78;4977997;28;45270;-72
2023/06/07 05:42:06;;;;;;;;;34.00;24.67;;;;;17.93;61.33;101172.50;4978266;28;45341;-70
2023/06/07 05:44:32;;;;;;;;;40.33;29.67;;;;;17.90;61.29;101170.19;4974698;28;45468;-70
2023/06/07 05:46:57;;;;;;;;;33.33;30.00;;;;;18.01;61.33;101190.44;4976419;28;46317;-71
2023/06/07 05:49:23;;;;;;;;;30.67;27.33;;;;;17.88;61.44;101170.38;4975405;28;45866;-71
2023/06/07 05:51:48;;;;;;;;;30.00;24.33;;;;;18.11;61.29;101189.16;4977979;28;45279;-71
2023/06/07 05:54:13;;;;;;;;;22.00;17.33;;;;;18.27;60.74;101190.88;4978468;28;45591;-72
2023/06/07 05:56:39;;;;;;;;;35.00;29.00;;;;;18.33;60.65;101179.38;4975874;28;46712;-72
2023/06/07 05:59:04;;;;;;;;;29.33;27.33;;;;;18.54;60.25;101190.25;4977593;28;45528;-71
2023/06/07 06:01:30;;;;;;;;;31.00;30.00;;;;;18.47;59.86;101140.84;4977634;28;45399;-71
2023/06/07 06:03:56;;;;;;;;;25.67;24.33;;;;;19.03;59.11;101184.31;4960444;28;45267;-71
2023/06/07 06:06:21;;;;;;;;;33.67;29.33;;;;;19.19;58.17;101158.97;4975613;28;47646;-73
2023/06/07 06:08:47;;;;;;;;;30.00;26.67;;;;;19.74;56.89;101182.59;4977463;28;45383;-72
2023/06/07 06:11:13;;;;;;;;;19.33;17.00;;;;;20.09;55.85;101177.31;4977536;28;45222;-73
2023/06/07 06:13:40;;;;;;;;;31.00;28.67;;;;;20.06;55.38;101139.91;4977900;28;45378;-71
2023/06/07 06:16:06;;;;;;;;;29.67;26.00;;;;;20.67;54.64;101196.03;4977461;28;46458;-71
2023/06/07 06:18:31;;;;;;;;;33.00;30.00;;;;;20.83;54.20;101196.53;4977154;28;45462;-72
2023/06/07 06:20:58;;;;;;;;;25.33;22.67;;;;;21.27;53.40;101197.16;4959441;28;45185;-77
2023/06/07 06:23:23;;;;;;;;;34.33;27.00;;;;;21.62;52.05;101204.09;4960326;28;45239;-70
2023/06/07 06:25:49;;;;;;;;;30.33;27.67;;;;;21.96;51.39;101199.56;4976738;28;46876;-72
2023/06/07 06:28:15;;;;;;;;;33.67;27.00;;;;;21.99;50.15;101137.69;4974296;28;45476;-72
2023/06/07 06:30:40;;;;;;;;;33.33;28.00;;;;;22.69;49.63;101189.53;4975426;28;45480;-70
2023/06/07 06:33:06;;;;;;;;;32.67;29.00;;;;;22.91;48.05;101171.13;4959595;28;45465;-74
2023/06/07 06:35:35;;;;;;;;;23.33;21.00;;;;;23.43;47.25;101205.31;4974733;28;47992;-72
2023/06/07 06:38:00;;;;;;;;;25.00;23.00;;;;;23.76;46.23;101212.44;4976068;28;45516;-71
2023/06/07 06:40:26;;;;;;;;;28.33;26.67;;;;;23.71;45.71;101199.53;4976457;28;45296;-75
2023/06/07 06:42:52;;;;;;;;;28.00;28.00;;;;;23.40;45.90;101145.19;4977308;28;45361;-72
2023/06/07 06:45:17;;;;;;;;;26.00;24.67;;;;;23.52;45.81;101184.16;4976817;28;45556;-71
2023/06/07 06:47:42;;;;;;;;;39.00;27.67;;;;;23.35;46.37;101205.53;4974818;28;45464;-70
2023/06/07 06:50:12;;;;;;;;;27.00;25.00;;;;;23.17;47.03;101192.69;4976729;28;45551;-72
2023/06/07 06:52:39;;;;;;;;;28.00;25.33;;;;;23.19;47.01;101206.03;4976514;28;45416;-70
2023/06/07 06:55:05;;;;;;;;;32.67;30.67;;;;;22.97;47.25;101202.78;4975160;28;46966;-72
2023/06/07 06:57:30;;;;;;;;;19.33;16.33;;;;;22.77;47.40;101200.94;4976165;28;45634;-70
2023/06/07 06:59:55;;;;;;;;;28.33;25.00;;;;;22.69;47.72;101206.63;4976658;28;45701;-72
2023/06/07 07:02:21;;;;;;;;;31.67;26.00;;;;;22.44;47.93;101194.78;4977252;28;45531;-72
2023/06/07 07:04:46;;;;;;;;;27.67;23.67;;;;;22.19;48.72;101185.63;4967214;28;45544;-70
2023/06/07 07:07:11;;;;;;;;;28.00;24.67;;;;;22.12;49.24;101199.19;4970262;28;45323;-69
2023/06/07 07:09:37;;;;;;;;;27.67;25.00;;;;;21.91;49.46;101192.06;4975995;28;45371;-70
2023/06/07 07:12:03;;;;;;;;;28.67;26.33;;;;;21.90;49.72;101217.47;4958820;28;45608;-70
2023/06/07 07:14:28;;;;;;;;;31.67;27.00;;;;;21.68;50.19;101221.41;4975479;28;46642;-70
2023/06/07 07:16:53;;;;;;;;;27.33;25.67;;;;;21.55;50.56;101205.97;4944837;28;45411;-72
2023/06/07 07:19:19;;;;;;;;;29.00;26.33;;;;;21.16;50.52;101152.56;4976269;28;45490;-69
2023/06/07 07:21:44;;;;;;;;;31.67;27.00;;;;;21.36;50.80;101201.34;4960107;28;45269;-71
2023/06/07 07:24:09;;;;;;;;;32.67;29.67;;;;;21.36;51.24;101212.97;4976179;28;45889;-70
2023/06/07 07:26:39;;;;;;;;;30.67;24.00;;;;;21.14;51.39;101200.59;4975709;28;45546;-70
2023/06/07 07:29:05;;;;;;;;;28.67;24.67;;;;;21.19;51.53;101214.34;4974999;28;45465;-70
2023/06/07 07:31:33;;;;;;;;;31.33;27.67;;;;;21.00;51.38;101201.56;4976066;28;45480;-72
2023/06/07 07:33:59;;;;;;;;;29.33;26.33;;;;;21.09;52.04;101219.31;4960053;28;48091;-71
2023/06/07 07:36:24;;;;;;;;;29.33;27.67;;;;;21.08;51.68;101212.25;4977061;28;45488;-70
2023/06/07 07:38:51;;;;;;;;;25.33;23.33;;;;;21.07;51.73;101210.56;4979409;28;45651;-75
2023/06/07 07:41:17;;;;;;;;;31.67;26.33;;;;;20.99;51.84;101214.25;4979292;28;45438;-72
2023/06/07 07:43:42;;;;;;;;;32.00;28.00;;;;;21.00;51.95;101198.88;4973028;28;45524;-69
2023/06/07 07:46:08;;;;;;;;;28.33;27.00;;;;;21.06;51.74;101215.16;4975422;28;45525;-69
2023/06/07 07:48:33;;;;;;;;;30.00;25.33;;;;;20.96;52.00;101199.28;4978143;28;45436;-70
2023/06/07 07:50:59;;;;;;;;;25.67;23.33;;;;;20.98;51.71;101190.97;4978909;28;45419;-69
2023/06/07 07:53:25;;;;;;;;;29.00;26.33;;;;;21.19;51.78;101219.75;4977634;28;45805;-72
2023/06/07 07:55:51;;;;;;;;;30.00;30.00;;;;;21.28;51.57;101212.34;4979008;28;45279;-71
2023/06/07 07:58:16;;;;;;;;;28.67;26.00;;;;;21.33;51.26;101204.44;4978389;28;45346;-68
2023/06/07 08:00:42;;;;;;;;;25.67;24.33;;;;;21.50;51.48;101216.56;4979954;28;45279;-71
2023/06/07 08:03:08;;;;;;;;;28.33;26.67;;;;;21.59;50.75;101182.84;4980181;28;45572;-71
2023/06/07 08:05:33;;;;;;;;;34.00;27.33;;;;;21.88;50.60;101206.03;4977400;28;45598;-71
2023/06/07 08:07:59;;;;;;;;;26.00;23.67;;;;;22.14;50.33;101197.94;4976693;28;45635;-71
2023/06/07 08:10:25;;;;;;;;;31.33;28.33;;;;;22.42;49.37;101199.56;4978281;28;45560;-69
2023/06/07 08:12:50;;;;;;;;;36.00;27.33;;;;;22.66;49.31;101201.63;4975634;28;46530;-70
2023/06/07 08:15:22;;;;;;;;;30.00;26.67;;;;;22.66;48.43;101143.88;4975516;28;45340;-70
2023/06/07 08:17:47;;;;;;;;;25.00;21.00;;;;;23.10;48.08;101159.34;4977310;28;45375;-71
2023/06/07 08:20:12;;;;;;;;;25.33;21.33;;;;;23.58;47.05;101194.16;4978649;28;45525;-72
2023/06/07 08:22:38;;;;;;;;;25.33;21.00;;;;;23.73;46.09;101197.41;4978788;28;45209;-71
2023/06/07 08:25:07;;;;;;;;;25.00;22.00;;;;;23.85;45.13;101201.09;4978988;28;45283;-71
2023/06/07 08:27:32;;;;;;;;;23.33;22.00;;;;;23.82;44.08;101177.06;4978224;28;45403;-71
2023/06/07 08:29:57;;;;;;;;;19.33;17.33;;;;;23.80;43.83;101164.78;4977564;28;45334;-72
2023/06/07 08:32:23;;;;;;;;;23.00;22.00;;;;;24.08;43.77;101196.94;4965027;28;45533;-70
2023/06/07 08:34:49;;;;;;;;;27.00;21.67;;;;;24.26;43.91;101200.53;4958159;28;45524;-71
2023/06/07 08:37:15;;;;;;;;;22.67;21.33;;;;;24.71;42.70;101197.59;4972846;28;45744;-73
2023/06/07 08:39:41;;;;;;;;;26.00;20.67;;;;;25.30;42.41;101192.53;4978892;28;45189;-72
2023/06/07 08:42:06;;;;;;;;;18.33;18.33;;;;;26.02;39.94;101199.59;4978366;28;46452;-71
2023/06/07 08:44:32;;;;;;;;;20.67;19.67;;;;;26.61;39.16;101200.47;4977062;28;46417;-71
2023/06/07 08:47:00;;;;;;;;;20.33;20.33;;;;;27.24;38.37;101198.84;4978370;28;45528;-70
2023/06/07 08:49:28;;;;;;;;;23.67;21.33;;;;;27.66;37.63;101195.81;4961207;28;45717;-72
2023/06/07 08:51:55;;;;;;;;;26.67;23.00;;;;;27.71;36.80;101144.81;4978699;28;45782;-72
2023/06/07 08:54:26;;;;;;;;;23.33;20.67;;;;;28.47;36.11;101191.69;4978788;28;45416;-71
2023/06/07 08:56:53;;;;;;;;;23.00;18.33;;;;;29.10;34.80;101189.50;4978290;28;45385;-71
2023/06/07 08:59:20;;;;;;;;;21.00;18.33;;;;;29.70;33.72;101183.84;4979057;28;45503;-74
2023/06/07 09:01:45;;;;;;;;;27.00;21.67;;;;;30.09;32.42;101180.91;4950410;28;47973;-71
2023/06/07 09:04:11;;;;;;;;;17.67;16.33;;;;;30.34;32.45;101189.31;4940985;28;45360;-73
2023/06/07 09:06:37;;;;;;;;;22.67;19.00;;;;;30.69;31.24;101174.19;4967869;28;45538;-70
2023/06/07 09:09:04;;;;;;;;;20.00;17.00;;;;;30.90;31.02;101170.41;4961304;28;45532;-73
2023/06/07 09:11:30;;;;;;;;;22.00;17.00;;;;;31.61;30.64;101180.75;4978149;28;45421;-71
2023/06/07 09:13:56;;;;;;;;;19.67;19.00;;;;;31.94;29.94;101176.69;4960792;28;45537;-71
2023/06/07 09:16:22;;;;;;;;;17.33;16.67;;;;;32.47;29.28;101171.69;4976671;28;45322;-71
2023/06/07 09:18:53;;;;;;;;;18.67;17.33;;;;;33.03;28.68;101168.72;4975472;28;45468;-74
2023/06/07 09:21:26;;;;;;;;;20.67;19.33;;;;;33.71;27.45;101166.91;4977682;28;46486;-72
2023/06/07 09:23:53;;;;;;;;;17.33;17.33;;;;;34.43;27.30;101180.88;4973012;28;46533;-76
2023/06/07 09:26:22;;;;;;;;;22.00;18.67;;;;;34.80;25.62;101168.31;4975895;28;45229;-74
2023/06/07 09:28:48;;;;;;;;;16.00;14.33;;;;;35.30;25.24;101161.28;4978537;28;45487;-72
2023/06/07 09:31:29;;;;;;;;;21.00;19.00;;;;;35.82;24.88;101138.03;4977981;28;46382;-72
2023/06/07 09:33:54;;;;;;;;;16.33;16.33;;;;;36.71;24.03;101167.41;4978249;28;45561;-73
2023/06/07 09:36:20;;;;;;;;;15.33;15.00;;;;;37.15;22.97;101167.56;4960264;28;45707;-72
2023/06/07 09:38:45;;;;;;;;;21.33;17.33;;;;;37.26;22.43;101156.28;4978432;28;45423;-71
2023/06/07 09:41:12;;;;;;;;;19.33;18.67;;;;;37.75;22.54;101164.50;4977922;28;45524;-72
2023/06/07 09:43:54;;;;;;;;;17.67;17.00;;;;;37.69;21.72;101151.06;4960490;28;45511;-72
2023/06/07 09:46:20;;;;;;;;;17.67;17.00;;;;;37.48;21.98;101159.06;4977806;28;45534;-70
2023/06/07 09:48:51;;;;;;;;;17.67;17.67;;;;;37.32;22.29;101138.38;4977907;28;45476;-71
2023/06/07 09:51:18;;;;;;;;;14.00;14.00;;;;;37.48;22.83;101161.03;4956644;28;48473;-71
2023/06/07 09:54:05;;;;;;;;;18.67;17.67;;;;;37.32;22.38;101160.56;4940567;28;45536;-72
2023/06/07 09:56:30;;;;;;;;;17.00;17.00;;;;;36.99;22.83;101151.59;4962703;28;45450;-72
2023/06/07 09:59:06;;;;;;;;;15.67;15.00;;;;;36.92;22.87;101145.66;4977919;28;45377;-72
2023/06/07 10:01:37;;;;;;;;;19.00;17.67;;;;;36.42;23.46;101151.91;4977326;28;45734;-72
2023/06/07 10:04:05;;;;;;;;;19.33;17.67;;;;;35.97;23.95;101123.97;4959737;28;45450;-70
2023/06/07 10:06:34;;;;;;;;;17.00;16.00;;;;;35.56;24.16;101142.38;4968080;28;45469;-72
2023/06/07 10:09:03;;;;;;;;;18.00;17.00;;;;;34.69;24.67;101140.00;4971819;28;45426;-71
2023/06/07 10:11:31;;;;;;;;;12.67;12.67;;;;;33.89;25.27;101121.28;4975062;28;45735;-73
2023/06/07 10:13:57;;;;;;;;;17.33;16.00;;;;;33.16;26.98;101137.78;4973065;28;45522;-72
2023/06/07 10:16:26;;;;;;;;;21.00;20.00;;;;;32.11;27.61;101108.44;4974042;28;45326;-70
2023/06/07 10:18:57;;;;;;;;;21.00;19.33;;;;;31.70;28.80;101146.97;4968619;28;45548;-72
2023/06/07 10:21:23;;;;;;;;;14.67;14.67;;;;;31.01;29.17;101130.91;4975260;28;45714;-72
2023/06/07 10:23:57;;;;;;;;;17.67;15.67;;;;;30.50;29.81;101130.69;4974778;28;45488;-71
2023/06/07 10:26:47;;;;;;;;;17.67;17.00;;;;;30.03;30.80;101127.06;4962652;28;45552;-72
2023/06/07 10:29:21;;;;;;;;;20.00;18.67;;;;;29.82;31.58;101129.66;4958460;28;45280;-72
2023/06/07 10:31:49;;;;;;;;;21.33;19.33;;;;;29.32;31.85;101114.44;4976555;28;47853;-73
2023/06/07 10:34:16;;;;;;;;;19.33;19.33;;;;;29.00;33.79;101135.44;4976251;28;45279;-74
2023/06/07 10:36:42;;;;;;;;;14.00;14.00;;;;;28.59;34.06;101123.97;4975299;28;45525;-74
2023/06/07 10:39:11;;;;;;;;;20.00;20.00;;;;;28.47;34.85;101126.84;4976216;28;45570;-72
2023/06/07 10:41:36;;;;;;;;;16.00;14.33;;;;;28.26;34.50;101111.25;4976587;28;46542;-71
2023/06/07 10:44:03;;;;;;;;;19.33;18.00;;;;;28.08;34.95;101104.13;4958332;28;45534;-73
2023/06/07 10:46:28;;;;;;;;;19.67;17.67;;;;;28.00;35.28;101109.19;4959241;28;45444;-73
2023/06/07 10:48:56;;;;;;;;;14.33;13.67;;;;;27.51;35.33;101040.66;4959678;28;45347;-72
2023/06/07 10:51:44;;;;;;;;;17.67;17.00;;;;;27.78;34.56;101109.13;4974985;28;47689;-72
2023/06/07 10:54:10;;;;;;;;;18.33;18.00;;;;;27.56;34.89;101109.84;4971931;28;45443;-73
2023/06/07 10:56:37;;;;;;;;;16.67;16.67;;;;;27.43;35.23;101110.19;4974667;28;45630;-75
2023/06/07 10:59:21;;;;;;;;;19.33;17.33;;;;;27.33;35.38;101104.53;4977387;28;45181;-72
2023/06/07 11:01:48;;;;;;;;;27.00;24.33;;;;;27.31;35.71;101117.59;4958701;28;45821;-72
2023/06/07 11:04:56;;;;;;;;;22.00;19.00;;;;;27.22;36.46;101097.22;4958941;28;45316;-73
2023/06/07 11:07:30;;;;;;;;;19.33;19.33;;;;;27.15;36.44;101102.84;4973153;28;45497;-72
2023/06/07 11:10:04;;;;;;;;;19.00;17.00;;;;;27.11;36.02;101106.31;4973079;28;45485;-74